Portada
METAR-TAF:

METAR-TAF

Aeroports :

Valencia, Veneçuela

latitud: 10-10N, longitud: 067-56W, altitud: 430 m

Observació

L'informe es va fer fa 53 minuts, a les 03:03 UTC
Temperatura
Pressió

METAR: SVVA 010303Z AUTO NIL

Hora: 23:56 (03:56 UTC)

Pronòstic

L'informe es va fer fa 17 hores i 56 minuts, a les 10:00 UTC
Pronòstic vàlid del 30 a les 12 UTC al 31 a les 12 UTC
Vent 3 kt del Est
Visibilitat 10 km o més
Escasses núvols a una alçada de 1600 ft
Temporalment
l' 30 a les 15 UTC al 30 a les 17 UTC
Vent 4 kt del Est/Sud-Est
Escasses núvols a una alçada de 2000 ft
Temporalment
l' 30 a les 18 UTC al 30 a les 22 UTC
Vent 5 kt del Sud/Sud-Oest
Visibilitat 10 km o més
Núvols disperses a una alçada de 1600 ft

TAF: SVVA 301000Z 3012/3112 09003KT 9999 FEW016 TX30/3018Z TN21/3108 TEMPO 3015/3017 11004KT FEW020 TEMPO 3018/3022 21005KT 9999 SCT016

Observacions i pronòstics meteorològics de més de 4000 aeroports (METAR i TAF).

Les estacions disponibles són els punts grocs i vermells al mapa.

Posi el ratolí al punt desitjat per veure el nom de l'estació.

Feu clic per veure les observacions i els pronòstics meteorològics.

Per canviar el mapa: feu clic els botons verds amb una creu de color negre per apropar; al botó verd amb un guió per allunyar la imatge; o en les fletxes verdes per a mapes adjacents.


METAR-TAF: